createdAt,value
2022-08-02T00:01:37.995Z,98970.16
2022-08-02T00:06:42.958Z,98963.38
2022-08-02T00:11:47.885Z,98964.16
2022-08-02T00:16:55.699Z,98970.94
2022-08-02T00:22:00.619Z,98967.94
2022-08-02T00:27:09.506Z,98963.31
2022-08-02T00:32:17.449Z,98956.81
2022-08-02T00:37:22.461Z,98961.75
2022-08-02T00:42:27.444Z,98965.00
2022-08-02T00:47:35.056Z,98957.19
2022-08-02T00:52:39.997Z,98955.00
2022-08-02T00:57:44.995Z,98960.28
2022-08-02T01:02:52.841Z,98964.75
2022-08-02T01:07:58.051Z,98970.72
2022-08-02T01:13:03.055Z,98955.16
2022-08-02T01:18:16.103Z,98948.56
2022-08-02T01:23:38.452Z,98965.63
2022-08-02T01:28:53.743Z,98964.91
2022-08-02T01:34:06.006Z,98964.69
2022-08-02T01:39:26.442Z,98958.00
2022-08-02T01:44:44.435Z,98958.22
2022-08-02T01:49:54.006Z,98963.81
2022-08-02T01:55:04.377Z,98961.56
2022-08-02T02:00:14.146Z,98957.09
2022-08-02T02:05:22.284Z,98962.47
2022-08-02T02:10:29.642Z,98966.50
2022-08-02T02:15:38.353Z,98975.13
2022-08-02T02:20:46.441Z,98975.41
2022-08-02T02:25:52.349Z,98974.00
2022-08-02T02:31:08.183Z,98985.19
2022-08-02T02:36:14.495Z,98992.53
2022-08-02T02:41:21.223Z,98985.78
2022-08-02T02:46:29.785Z,98997.09
2022-08-02T02:51:35.419Z,99000.13
2022-08-02T02:56:40.977Z,99006.41
2022-08-02T03:01:57.322Z,98999.19
2022-08-02T03:07:04.175Z,98999.38
2022-08-02T03:12:12.597Z,98998.50
2022-08-02T03:17:26.269Z,98998.81
2022-08-02T03:22:32.659Z,99011.50
2022-08-02T03:27:37.801Z,99005.22
2022-08-02T03:32:51.346Z,99000.69
2022-08-02T03:37:58.661Z,98993.44
2022-08-02T03:43:04.863Z,98994.38
2022-08-02T03:48:34.316Z,98992.66
2022-08-02T03:53:39.856Z,99005.44
2022-08-02T03:58:49.020Z,99012.59
2022-08-02T04:03:57.062Z,99020.44
2022-08-02T04:09:02.060Z,99022.97
2022-08-02T04:14:11.517Z,99027.16
2022-08-02T04:19:24.846Z,99042.44
2022-08-02T04:24:33.685Z,99039.09
2022-08-02T04:29:43.949Z,99044.25
2022-08-02T04:35:18.215Z,99048.63
2022-08-02T04:40:19.867Z,99056.41
2022-08-02T04:45:25.958Z,99061.78
2022-08-02T04:50:33.595Z,99068.38
2022-08-02T04:55:38.639Z,99076.13
2022-08-02T05:00:43.841Z,99073.44
2022-08-02T05:05:51.381Z,99056.91
2022-08-02T05:10:59.313Z,99068.53
2022-08-02T05:16:04.740Z,99073.31
2022-08-02T05:21:12.688Z,99064.47
2022-08-02T05:26:18.183Z,99064.31
2022-08-02T05:31:25.432Z,99059.47
2022-08-02T05:36:33.662Z,99070.41
2022-08-02T05:41:38.744Z,99073.72
2022-08-02T05:46:43.731Z,99077.25
2022-08-02T05:52:00.555Z,99071.56
2022-08-02T05:57:09.948Z,99068.50
2022-08-02T06:02:30.367Z,99067.78
2022-08-02T06:07:39.978Z,99061.50
2022-08-02T06:12:51.215Z,99063.16
2022-08-02T06:17:56.290Z,99073.91
2022-08-02T06:23:04.586Z,99077.78
2022-08-02T06:28:10.638Z,99077.72
2022-08-02T06:33:16.655Z,99081.53
2022-08-02T06:38:26.943Z,99084.13
2022-08-02T06:43:37.731Z,99088.16
2022-08-02T06:48:44.424Z,99084.03
2022-08-02T06:53:53.053Z,99082.09
2022-08-02T06:58:58.370Z,99080.91
2022-08-02T07:04:04.330Z,99088.53
2022-08-02T07:09:20.401Z,99079.63
2022-08-02T07:14:26.142Z,99077.81
2022-08-02T07:19:37.804Z,99079.53
2022-08-02T07:24:45.884Z,99071.47
2022-08-02T07:29:51.197Z,99083.81
2022-08-02T07:34:57.096Z,99080.03
2022-08-02T07:40:08.814Z,99077.94
2022-08-02T07:45:18.021Z,99071.75
2022-08-02T07:50:24.262Z,99063.94
2022-08-02T07:55:39.339Z,99065.50
2022-08-02T08:00:46.624Z,99058.16
2022-08-02T08:05:52.885Z,99058.28
2022-08-02T08:11:25.889Z,99062.56
2022-08-02T08:16:37.682Z,99056.78
2022-08-02T08:21:43.270Z,99061.88
2022-08-02T08:26:51.447Z,99062.59
2022-08-02T08:31:56.933Z,99053.66
2022-08-02T08:37:02.591Z,99047.84
2022-08-02T08:42:12.387Z,99055.22
2022-08-02T08:47:17.935Z,99057.34
2022-08-02T08:52:26.704Z,99048.22
2022-08-02T08:57:40.838Z,99052.94
2022-08-02T09:02:47.033Z,99048.34
2022-08-02T09:07:54.263Z,99052.66
2022-08-02T09:13:31.370Z,99051.94
2022-08-02T09:18:37.401Z,99050.75
2022-08-02T09:23:44.409Z,99054.28
2022-08-02T09:28:55.714Z,99043.22
2022-08-02T09:34:01.865Z,99043.16
2022-08-02T09:39:09.405Z,99038.97
2022-08-02T09:44:18.217Z,99036.28
2022-08-02T09:49:23.179Z,99030.38
2022-08-02T09:54:31.423Z,99030.44
2022-08-02T09:59:39.343Z,99023.00
2022-08-02T10:04:53.334Z,99010.28
2022-08-02T10:10:02.844Z,99017.03
2022-08-02T11:07:15.294Z,98956.13
2022-08-02T11:13:09.664Z,98950.56
2022-08-02T11:18:32.839Z,98964.53
2022-08-02T11:23:56.349Z,98972.63
2022-08-02T11:29:15.420Z,98971.44
2022-08-02T11:40:19.956Z,98976.97
2022-08-02T13:27:49.550Z,98881.75
2022-08-02T13:33:00.934Z,98874.00
2022-08-02T13:38:15.886Z,98874.28
2022-08-02T13:43:53.559Z,98864.47
2022-08-02T13:49:19.474Z,98868.53
2022-08-02T13:54:39.479Z,98854.31
2022-08-02T13:59:59.121Z,98861.75
2022-08-02T14:22:38.518Z,98831.56
2022-08-02T14:27:44.018Z,98840.69
2022-08-02T14:32:54.697Z,98834.56
2022-08-02T14:49:38.301Z,98823.03
2022-08-02T14:55:24.075Z,98812.63
2022-08-02T15:00:40.409Z,98838.41
2022-08-02T15:05:52.286Z,98827.06
2022-08-02T15:11:03.268Z,98836.91
2022-08-02T15:16:16.358Z,98806.88
2022-08-02T15:21:40.701Z,98798.44
2022-08-02T15:26:51.055Z,98806.72
2022-08-02T15:32:00.141Z,98804.31
2022-08-02T15:37:10.904Z,98800.44
2022-08-02T15:42:18.572Z,98802.53
2022-08-02T15:47:31.355Z,98802.97
2022-08-02T15:52:39.765Z,98815.63
2022-08-02T15:57:46.908Z,98803.44
2022-08-02T16:02:55.541Z,98794.13
2022-08-02T16:08:01.293Z,98795.09
2022-08-02T16:13:20.048Z,98794.47
2022-08-02T16:18:29.650Z,98793.44
2022-08-02T16:24:02.699Z,98786.03
2022-08-02T16:35:07.602Z,98792.69
2022-08-02T16:40:20.945Z,98798.22
2022-08-02T16:46:06.631Z,98778.88
2022-08-02T16:51:27.103Z,98789.50
2022-08-02T17:02:18.152Z,98795.88
2022-08-02T17:08:08.347Z,98796.84
2022-08-02T17:13:12.196Z,98798.06
2022-08-02T17:18:19.837Z,98807.34
2022-08-02T17:24:04.047Z,98814.34
2022-08-02T17:29:15.812Z,98803.31
2022-08-02T17:34:29.611Z,98808.78
2022-08-02T17:39:44.279Z,98800.72
2022-08-02T17:45:00.914Z,98805.03
2022-08-02T17:50:13.387Z,98812.06
2022-08-02T17:55:21.906Z,98810.03
2022-08-02T18:00:30.941Z,98808.91
2022-08-02T18:05:53.039Z,98805.72
2022-08-02T18:11:04.596Z,98808.94
2022-08-02T18:16:21.198Z,98808.69
2022-08-02T18:21:31.641Z,98809.69
2022-08-02T18:26:43.512Z,98814.72
2022-08-02T18:31:51.137Z,98826.00
2022-08-02T18:37:05.616Z,98829.41
2022-08-02T18:42:40.664Z,98826.63
2022-08-02T18:47:51.004Z,98821.84
2022-08-02T18:52:58.251Z,98832.13
2022-08-02T18:58:17.865Z,98829.75
2022-08-02T19:03:28.818Z,98830.88
2022-08-02T19:08:35.302Z,98836.50
2022-08-02T19:13:46.774Z,98843.72
2022-08-02T19:18:52.313Z,98843.50
2022-08-02T19:23:58.384Z,98847.06
2022-08-02T19:29:08.754Z,98842.41
2022-08-02T19:34:16.906Z,98849.78
2022-08-02T19:39:22.007Z,98858.03
2022-08-02T19:44:34.588Z,98854.91
2022-08-02T19:49:40.838Z,98853.81
2022-08-02T19:54:55.689Z,98858.09
2022-08-02T20:00:04.860Z,98873.66
2022-08-02T20:05:23.900Z,98881.44
2022-08-02T20:10:33.596Z,98881.41
2022-08-02T20:15:56.392Z,98884.78
2022-08-02T20:21:03.260Z,98892.50
2022-08-02T20:26:09.081Z,98893.28
2022-08-02T20:31:16.654Z,98890.59
2022-08-02T20:36:23.566Z,98895.22
2022-08-02T20:41:36.363Z,98897.53
2022-08-02T20:46:45.336Z,98896.75
2022-08-02T20:51:50.442Z,98888.19
2022-08-02T20:56:55.388Z,98894.41
2022-08-02T21:02:03.434Z,98892.97
2022-08-02T21:07:08.686Z,98890.63
2022-08-02T21:12:17.967Z,98887.38
2022-08-02T21:17:42.504Z,98885.38
2022-08-02T21:22:54.726Z,98891.38
2022-08-02T21:28:00.406Z,98885.56
2022-08-02T21:33:17.782Z,98883.19
2022-08-02T21:38:35.724Z,98878.78
2022-08-02T21:43:43.958Z,98880.72
2022-08-02T21:48:51.611Z,98871.00
2022-08-02T21:54:18.304Z,98877.31
2022-08-02T21:59:25.848Z,98880.94
2022-08-02T22:04:35.045Z,98874.97
2022-08-02T22:15:06.024Z,98872.63
2022-08-02T22:20:20.843Z,98871.56
2022-08-02T22:25:37.533Z,98883.56
2022-08-02T22:30:43.032Z,98881.97
2022-08-02T22:35:51.927Z,98887.69
2022-08-02T22:40:57.119Z,98884.72
2022-08-02T22:46:02.426Z,98893.59
2022-08-02T22:51:10.068Z,98894.41
2022-08-02T22:56:16.456Z,98895.50
2022-08-02T22:59:04.208Z,98878.91
2022-08-02T23:01:21.521Z,98901.28
2022-08-02T23:06:29.008Z,98891.03
2022-08-02T23:11:33.961Z,98890.56
2022-08-02T23:16:52.862Z,98897.81
2022-08-02T23:22:02.793Z,98899.06
2022-08-02T23:27:08.273Z,98894.88
2022-08-02T23:32:13.756Z,98895.16
2022-08-02T23:37:21.310Z,98901.44
2022-08-02T23:42:26.561Z,98892.88
2022-08-02T23:47:31.458Z,98902.38
2022-08-02T23:52:38.974Z,98898.06
2022-08-02T23:57:44.030Z,98900.13
